DDG YMBT-YWSL
Flight info
| Callsign | DDG |
|---|---|
| Flight time | 0h 36m |
| Altitude | 18000 |
| Route | N0230F180 DCT VALDU W847 ESL DCT |
| Aircraft | BE55/L-SBDFGRY/SB1 |
Departure
| Time | 2026-05-04 12:04 |
|---|---|
| Airport | Mount Beauty Airport (YMBT) |
Arrival
| Time | 2026-05-04 12:41 |
|---|---|
| Airport | West Sale Airport (YWSL) |
| Time | Latitude | Longitude | Altitude | Speed | Heading |
|---|---|---|---|---|---|
| 2026-05-04 12:00 | -36.73380 | 147.16991 | 1122 ft | 0 kts | 120° |
| 2026-05-04 12:02 | -36.73417 | 147.17064 | 1125 ft | 0 kts | 335° |
| 2026-05-04 12:03 | -36.73282 | 147.16980 | 1130 ft | 55 kts | 332° |
| 2026-05-04 12:03 | -36.72783 | 147.16647 | 1151 ft | 100 kts | 331° |
| 2026-05-04 12:04 | -36.72139 | 147.16218 | 1384 ft | 108 kts | 330° |
| 2026-05-04 12:04 | -36.71472 | 147.15768 | 1682 ft | 111 kts | 333° |
| 2026-05-04 12:04 | -36.70718 | 147.15394 | 1947 ft | 125 kts | 341° |
| 2026-05-04 12:04 | -36.69889 | 147.15037 | 2361 ft | 125 kts | 340° |
| 2026-05-04 12:05 | -36.69025 | 147.15006 | 2767 ft | 130 kts | 17° |
| 2026-05-04 12:05 | -36.68336 | 147.15736 | 3217 ft | 136 kts | 56° |
| 2026-05-04 12:05 | -36.68175 | 147.16943 | 3576 ft | 154 kts | 96° |
| 2026-05-04 12:05 | -36.68707 | 147.18120 | 3936 ft | 160 kts | 141° |
| 2026-05-04 12:06 | -36.69682 | 147.18748 | 4392 ft | 155 kts | 163° |
| 2026-05-04 12:06 | -36.70703 | 147.19095 | 4830 ft | 155 kts | 182° |
| 2026-05-04 12:06 | -36.71753 | 147.19048 | 5304 ft | 146 kts | 203° |
| 2026-05-04 12:06 | -36.72614 | 147.18440 | 5647 ft | 141 kts | 237° |
| 2026-05-04 12:07 | -36.73116 | 147.17473 | 6172 ft | 125 kts | 252° |
| 2026-05-04 12:07 | -36.73544 | 147.16510 | 6546 ft | 131 kts | 250° |
| 2026-05-04 12:07 | -36.74253 | 147.15709 | 6894 ft | 150 kts | 215° |
| 2026-05-04 12:07 | -36.75264 | 147.15251 | 7200 ft | 157 kts | 212° |
| 2026-05-04 12:08 | -36.76284 | 147.14800 | 7638 ft | 153 kts | 210° |
| 2026-05-04 12:08 | -36.77288 | 147.14438 | 8173 ft | 142 kts | 208° |
| 2026-05-04 12:08 | -36.78245 | 147.14170 | 8692 ft | 144 kts | 201° |
| 2026-05-04 12:08 | -36.79273 | 147.14079 | 9160 ft | 149 kts | 192° |
| 2026-05-04 12:09 | -36.80343 | 147.14132 | 9449 ft | 160 kts | 186° |
| 2026-05-04 12:09 | -36.81446 | 147.14159 | 9830 ft | 156 kts | 193° |
| 2026-05-04 12:09 | -36.82510 | 147.14122 | 10199 ft | 153 kts | 193° |
| 2026-05-04 12:09 | -36.83567 | 147.14105 | 10544 ft | 150 kts | 192° |
| 2026-05-04 12:10 | -36.84604 | 147.14104 | 10889 ft | 148 kts | 192° |
| 2026-05-04 12:10 | -36.85615 | 147.14062 | 11232 ft | 147 kts | 195° |
| 2026-05-04 12:10 | -36.86668 | 147.14013 | 11579 ft | 155 kts | 193° |
| 2026-05-04 12:10 | -36.87737 | 147.14016 | 11933 ft | 151 kts | 191° |
| 2026-05-04 12:11 | -36.88786 | 147.14024 | 12313 ft | 151 kts | 191° |
| 2026-05-04 12:11 | -36.89851 | 147.14040 | 12690 ft | 153 kts | 190° |
| 2026-05-04 12:11 | -36.90897 | 147.14056 | 13077 ft | 149 kts | 191° |
| 2026-05-04 12:11 | -36.91941 | 147.14067 | 13471 ft | 150 kts | 191° |
| 2026-05-04 12:12 | -36.92977 | 147.14087 | 13858 ft | 148 kts | 191° |
| 2026-05-04 12:12 | -36.94068 | 147.14091 | 13990 ft | 170 kts | 189° |
| 2026-05-04 12:12 | -36.95328 | 147.14104 | 14007 ft | 191 kts | 188° |
| 2026-05-04 12:12 | -36.96708 | 147.14132 | 14002 ft | 205 kts | 187° |
| 2026-05-04 12:13 | -36.98146 | 147.14158 | 13996 ft | 213 kts | 187° |
| 2026-05-04 12:14 | -37.08977 | 147.14334 | 13974 ft | 224 kts | 187° |
| 2026-05-04 12:15 | -37.10542 | 147.14356 | 13977 ft | 226 kts | 187° |
| 2026-05-04 12:15 | -37.12126 | 147.14381 | 13973 ft | 228 kts | 187° |
| 2026-05-04 12:15 | -37.13718 | 147.14411 | 13972 ft | 229 kts | 187° |
| 2026-05-04 12:15 | -37.15305 | 147.14438 | 13965 ft | 227 kts | 187° |
| 2026-05-04 12:16 | -37.16887 | 147.14461 | 13964 ft | 229 kts | 187° |
| 2026-05-04 12:16 | -37.18484 | 147.14478 | 13968 ft | 230 kts | 187° |
| 2026-05-04 12:16 | -37.20089 | 147.14505 | 13961 ft | 231 kts | 187° |
| 2026-05-04 12:16 | -37.21703 | 147.14533 | 13957 ft | 232 kts | 187° |
| 2026-05-04 12:17 | -37.23316 | 147.14561 | 13958 ft | 231 kts | 187° |
| 2026-05-04 12:17 | -37.24904 | 147.14587 | 13959 ft | 227 kts | 187° |
| 2026-05-04 12:17 | -37.26480 | 147.14609 | 13950 ft | 226 kts | 187° |
| 2026-05-04 12:17 | -37.28049 | 147.14631 | 13948 ft | 224 kts | 186° |
| 2026-05-04 12:18 | -37.29604 | 147.14659 | 13943 ft | 223 kts | 186° |
| 2026-05-04 12:18 | -37.31152 | 147.14682 | 13934 ft | 223 kts | 186° |
| 2026-05-04 12:18 | -37.32693 | 147.14708 | 13995 ft | 220 kts | 186° |
| 2026-05-04 12:18 | -37.34225 | 147.14731 | 13990 ft | 220 kts | 186° |
| 2026-05-04 12:19 | -37.35760 | 147.14754 | 13989 ft | 220 kts | 186° |
| 2026-05-04 12:19 | -37.37291 | 147.14779 | 13993 ft | 220 kts | 186° |
| 2026-05-04 12:19 | -37.38825 | 147.14804 | 13988 ft | 220 kts | 186° |
| 2026-05-04 12:19 | -37.40352 | 147.14828 | 13987 ft | 220 kts | 185° |
| 2026-05-04 12:20 | -37.41882 | 147.14851 | 13985 ft | 220 kts | 185° |
| 2026-05-04 12:20 | -37.43387 | 147.14875 | 13987 ft | 218 kts | 185° |
| 2026-05-04 12:20 | -37.44921 | 147.14900 | 13982 ft | 218 kts | 185° |
| 2026-05-04 12:20 | -37.46438 | 147.14923 | 13986 ft | 218 kts | 185° |
| 2026-05-04 12:21 | -37.47932 | 147.14947 | 13983 ft | 218 kts | 185° |
| 2026-05-04 12:21 | -37.49450 | 147.14971 | 13980 ft | 218 kts | 185° |
| 2026-05-04 12:21 | -37.50964 | 147.14995 | 13950 ft | 219 kts | 185° |
| 2026-05-04 12:21 | -37.52518 | 147.15016 | 13709 ft | 229 kts | 184° |
| 2026-05-04 12:22 | -37.54130 | 147.15041 | 13498 ft | 232 kts | 184° |
| 2026-05-04 12:22 | -37.55722 | 147.15071 | 13500 ft | 226 kts | 184° |
| 2026-05-04 12:22 | -37.56782 | 147.15089 | 13497 ft | 224 kts | 184° |
| 2026-05-04 12:22 | -37.58835 | 147.15120 | 13494 ft | 221 kts | 185° |
| 2026-05-04 12:23 | -37.60370 | 147.15144 | 13492 ft | 220 kts | 185° |
| 2026-05-04 12:23 | -37.61897 | 147.15168 | 13491 ft | 219 kts | 184° |
| 2026-05-04 12:23 | -37.62905 | 147.15185 | 13485 ft | 219 kts | 184° |
| 2026-05-04 12:23 | -37.64426 | 147.15209 | 13481 ft | 218 kts | 184° |
| 2026-05-04 12:24 | -37.65939 | 147.15232 | 13482 ft | 217 kts | 184° |
| 2026-05-04 12:24 | -37.67450 | 147.15256 | 13477 ft | 217 kts | 184° |
| 2026-05-04 12:24 | -37.68987 | 147.15279 | 13187 ft | 225 kts | 184° |
| 2026-05-04 12:24 | -37.70581 | 147.15302 | 12804 ft | 232 kts | 184° |
| 2026-05-04 12:25 | -37.72395 | 147.15332 | 12385 ft | 237 kts | 185° |
| 2026-05-04 12:25 | -37.73489 | 147.15351 | 12132 ft | 238 kts | 185° |
| 2026-05-04 12:25 | -37.75148 | 147.15378 | 11760 ft | 237 kts | 185° |
| 2026-05-04 12:25 | -37.76784 | 147.15405 | 11382 ft | 232 kts | 185° |
| 2026-05-04 12:26 | -37.78377 | 147.15433 | 11002 ft | 225 kts | 186° |
| 2026-05-04 12:26 | -37.79926 | 147.15458 | 10629 ft | 221 kts | 186° |
| 2026-05-04 12:26 | -37.81452 | 147.15481 | 10261 ft | 217 kts | 187° |
| 2026-05-04 12:26 | -37.82957 | 147.15504 | 9894 ft | 215 kts | 187° |
| 2026-05-04 12:27 | -37.84442 | 147.15528 | 9497 ft | 212 kts | 187° |
| 2026-05-04 12:27 | -37.85919 | 147.15551 | 9099 ft | 211 kts | 187° |
| 2026-05-04 12:27 | -37.87368 | 147.15574 | 8710 ft | 211 kts | 188° |
| 2026-05-04 12:27 | -37.88832 | 147.15597 | 8323 ft | 210 kts | 188° |
| 2026-05-04 12:28 | -37.90294 | 147.15621 | 7941 ft | 210 kts | 188° |
| 2026-05-04 12:28 | -37.91751 | 147.15644 | 7561 ft | 209 kts | 188° |
| 2026-05-04 12:28 | -37.93206 | 147.15667 | 7188 ft | 209 kts | 189° |
| 2026-05-04 12:28 | -37.94665 | 147.15690 | 6818 ft | 209 kts | 189° |
| 2026-05-04 12:29 | -37.96126 | 147.15714 | 6462 ft | 210 kts | 189° |
| 2026-05-04 12:29 | -37.97586 | 147.15738 | 6077 ft | 210 kts | 189° |
| 2026-05-04 12:29 | -37.99045 | 147.15761 | 5694 ft | 209 kts | 189° |
| 2026-05-04 12:29 | -38.00503 | 147.15784 | 5312 ft | 209 kts | 189° |
| 2026-05-04 12:30 | -38.01958 | 147.15806 | 4931 ft | 210 kts | 189° |
| 2026-05-04 12:30 | -38.03428 | 147.15828 | 4474 ft | 212 kts | 189° |
| 2026-05-04 12:30 | -38.04913 | 147.15853 | 4018 ft | 213 kts | 188° |
| 2026-05-04 12:30 | -38.06396 | 147.15878 | 3569 ft | 213 kts | 188° |
| 2026-05-04 12:31 | -38.07812 | 147.15599 | 3125 ft | 200 kts | 210° |
| 2026-05-04 12:31 | -38.08948 | 147.14817 | 3052 ft | 172 kts | 227° |
| 2026-05-04 12:31 | -38.09736 | 147.13813 | 3050 ft | 153 kts | 244° |
| 2026-05-04 12:31 | -38.10240 | 147.12670 | 3041 ft | 142 kts | 263° |
| 2026-05-04 12:32 | -38.10294 | 147.11470 | 3052 ft | 135 kts | 276° |
| 2026-05-04 12:32 | -38.10384 | 147.09095 | 3043 ft | 134 kts | 273° |
| 2026-05-04 12:32 | -38.10451 | 147.07932 | 3045 ft | 134 kts | 272° |
| 2026-05-04 12:33 | -38.10502 | 147.06754 | 2896 ft | 130 kts | 272° |
| 2026-05-04 12:33 | -38.10562 | 147.05627 | 2706 ft | 127 kts | 274° |
| 2026-05-04 12:33 | -38.10579 | 147.04517 | 2571 ft | 123 kts | 277° |
| 2026-05-04 12:33 | -38.10558 | 147.03437 | 2375 ft | 123 kts | 278° |
| 2026-05-04 12:34 | -38.10535 | 147.02331 | 2128 ft | 127 kts | 277° |
| 2026-05-04 12:34 | -38.10532 | 147.01203 | 1963 ft | 130 kts | 276° |
| 2026-05-04 12:34 | -38.10551 | 147.00054 | 2014 ft | 130 kts | 274° |
| 2026-05-04 12:34 | -38.10477 | 146.98861 | 1805 ft | 140 kts | 284° |
| 2026-05-04 12:35 | -38.10236 | 146.97660 | 1714 ft | 138 kts | 291° |
| 2026-05-04 12:35 | -38.09885 | 146.96550 | 1706 ft | 133 kts | 305° |
| 2026-05-04 12:35 | -38.09112 | 146.96053 | 1689 ft | 133 kts | 356° |
| 2026-05-04 12:35 | -38.08243 | 146.96529 | 1649 ft | 137 kts | 30° |
| 2026-05-04 12:36 | -38.07707 | 146.97573 | 1581 ft | 151 kts | 66° |
| 2026-05-04 12:36 | -38.07633 | 146.98921 | 1532 ft | 155 kts | 93° |
| 2026-05-04 12:36 | -38.07896 | 147.00191 | 1442 ft | 145 kts | 122° |
| 2026-05-04 12:36 | -38.08650 | 147.00892 | 1205 ft | 128 kts | 173° |
| 2026-05-04 12:37 | -38.09446 | 147.00743 | 893 ft | 110 kts | 226° |
| 2026-05-04 12:37 | -38.09605 | 146.99894 | 652 ft | 106 kts | 285° |
| 2026-05-04 12:37 | -38.09422 | 146.98968 | 430 ft | 118 kts | 285° |
| 2026-05-04 12:37 | -38.09222 | 146.97865 | 569 ft | 136 kts | 284° |
| 2026-05-04 12:38 | -38.09002 | 146.96649 | 802 ft | 144 kts | 284° |
| 2026-05-04 12:38 | -38.08693 | 146.95461 | 1057 ft | 141 kts | 308° |
| 2026-05-04 12:38 | -38.07809 | 146.95007 | 1018 ft | 151 kts | 7° |
| 2026-05-04 12:38 | -38.07028 | 146.95890 | 943 ft | 162 kts | 70° |
| 2026-05-04 12:39 | -38.07089 | 146.97246 | 901 ft | 146 kts | 99° |
| 2026-05-04 12:39 | -38.07293 | 146.98442 | 1023 ft | 137 kts | 99° |
| 2026-05-04 12:39 | -38.07598 | 146.99570 | 1043 ft | 136 kts | 126° |
| 2026-05-04 12:39 | -38.08340 | 147.00100 | 895 ft | 117 kts | 183° |
| 2026-05-04 12:40 | -38.09058 | 146.99735 | 688 ft | 113 kts | 228° |
| 2026-05-04 12:40 | -38.09371 | 146.98854 | 428 ft | 109 kts | 271° |
| 2026-05-04 12:40 | -38.09267 | 146.97935 | 155 ft | 107 kts | 282° |
| 2026-05-04 12:40 | -38.09159 | 146.97091 | 72 ft | 79 kts | 281° |
| 2026-05-04 12:41 | -38.09081 | 146.96524 | 73 ft | 54 kts | 280° |
| 2026-05-04 12:41 | -38.09026 | 146.96135 | 68 ft | 27 kts | 283° |
| 2026-05-04 12:41 | -38.09029 | 146.96121 | 68 ft | 13 kts | 86° |
| 2026-05-04 12:41 | -38.09046 | 146.96281 | 63 ft | 22 kts | 101° |
| 2026-05-04 12:42 | -38.09077 | 146.96490 | 70 ft | 26 kts | 98° |
| 2026-05-04 12:42 | -38.09105 | 146.96730 | 67 ft | 29 kts | 102° |
| 2026-05-04 12:42 | -38.09139 | 146.96966 | 74 ft | 25 kts | 101° |
| 2026-05-04 12:42 | -38.09164 | 146.97165 | 74 ft | 21 kts | 98° |
| 2026-05-04 12:43 | -38.09187 | 146.97333 | 70 ft | 15 kts | 112° |
| 2026-05-04 12:43 | -38.09232 | 146.97369 | 73 ft | 6 kts | 198° |
| 2026-05-04 12:43 | -38.09266 | 146.97355 | 71 ft | 5 kts | 207° |
| 2026-05-04 12:43 | -38.09296 | 146.97321 | 74 ft | 7 kts | 225° |
| 2026-05-04 12:44 | -38.09327 | 146.97285 | 73 ft | 2 kts | 221° |
| 2026-05-04 12:44 | -38.09329 | 146.97269 | 73 ft | 1 kts | 357° |
| 2026-05-04 12:44 | -38.09328 | 146.97270 | 73 ft | 0 kts | 8° |